sensor_id;sensor_type;location;lat;lon;timestamp;pressure;altitude;pressure_sealevel;temperature;humidity
9335;BME280;4706;41.844;26.082;2023-01-10T00:01:54;100571.16;;;6.55;100.00
9335;BME280;4706;41.844;26.082;2023-01-10T00:04:22;100572.81;;;6.56;100.00
9335;BME280;4706;41.844;26.082;2023-01-10T00:06:48;100567.34;;;6.56;100.00
9335;BME280;4706;41.844;26.082;2023-01-10T00:09:13;100551.50;;;6.53;100.00
9335;BME280;4706;41.844;26.082;2023-01-10T00:11:39;100555.31;;;6.47;100.00
9335;BME280;4706;41.844;26.082;2023-01-10T00:14:23;100558.03;;;6.42;100.00
9335;BME280;4706;41.844;26.082;2023-01-10T00:16:50;100555.06;;;6.43;100.00
9335;BME280;4706;41.844;26.082;2023-01-10T00:19:15;100534.03;;;6.44;100.00
9335;BME280;4706;41.844;26.082;2023-01-10T00:21:41;100542.47;;;6.42;100.00
9335;BME280;4706;41.844;26.082;2023-01-10T00:24:06;100536.47;;;6.45;100.00
9335;BME280;4706;41.844;26.082;2023-01-10T00:26:44;100529.34;;;6.49;100.00
9335;BME280;4706;41.844;26.082;2023-01-10T00:29:11;100535.09;;;6.53;100.00
9335;BME280;4706;41.844;26.082;2023-01-10T00:31:38;100527.72;;;6.59;100.00
9335;BME280;4706;41.844;26.082;2023-01-10T00:34:03;100528.00;;;6.62;100.00
9335;BME280;4706;41.844;26.082;2023-01-10T00:36:29;100519.50;;;6.64;100.00
9335;BME280;4706;41.844;26.082;2023-01-10T00:38:55;100517.56;;;6.69;100.00
9335;BME280;4706;41.844;26.082;2023-01-10T00:41:20;100528.25;;;6.71;100.00
9335;BME280;4706;41.844;26.082;2023-01-10T00:44:04;100514.03;;;6.69;100.00
9335;BME280;4706;41.844;26.082;2023-01-10T00:46:30;100518.13;;;6.71;100.00
9335;BME280;4706;41.844;26.082;2023-01-10T00:48:56;100523.84;;;6.75;100.00
9335;BME280;4706;41.844;26.082;2023-01-10T00:51:22;100513.22;;;6.73;100.00
9335;BME280;4706;41.844;26.082;2023-01-10T00:53:47;100503.63;;;6.76;100.00
9335;BME280;4706;41.844;26.082;2023-01-10T00:56:13;100502.25;;;6.78;100.00
9335;BME280;4706;41.844;26.082;2023-01-10T00:58:38;100494.06;;;6.78;100.00
9335;BME280;4706;41.844;26.082;2023-01-10T01:01:04;100495.69;;;6.79;100.00
9335;BME280;4706;41.844;26.082;2023-01-10T01:03:29;100488.03;;;6.81;100.00
9335;BME280;4706;41.844;26.082;2023-01-10T01:05:55;100477.91;;;6.87;100.00
9335;BME280;4706;41.844;26.082;2023-01-10T01:08:21;100464.78;;;6.89;100.00
9335;BME280;4706;41.844;26.082;2023-01-10T01:10:47;100465.84;;;6.93;100.00
9335;BME280;4706;41.844;26.082;2023-01-10T01:13:15;100463.66;;;6.95;100.00
9335;BME280;4706;41.844;26.082;2023-01-10T01:15:41;100454.03;;;7.03;100.00
9335;BME280;4706;41.844;26.082;2023-01-10T01:18:08;100449.13;;;7.05;100.00
9335;BME280;4706;41.844;26.082;2023-01-10T01:20:38;100450.50;;;7.08;100.00
9335;BME280;4706;41.844;26.082;2023-01-10T01:23:03;100446.09;;;7.06;100.00
9335;BME280;4706;41.844;26.082;2023-01-10T01:25:29;100451.56;;;7.12;100.00
9335;BME280;4706;41.844;26.082;2023-01-10T01:27:55;100446.63;;;7.14;100.00
9335;BME280;4706;41.844;26.082;2023-01-10T01:30:20;100432.94;;;7.14;100.00
9335;BME280;4706;41.844;26.082;2023-01-10T01:32:46;100423.56;;;7.30;100.00
9335;BME280;4706;41.844;26.082;2023-01-10T01:35:14;100420.50;;;7.37;100.00
9335;BME280;4706;41.844;26.082;2023-01-10T01:37:40;100427.34;;;7.39;100.00
9335;BME280;4706;41.844;26.082;2023-01-10T01:40:07;100428.16;;;7.40;100.00
9335;BME280;4706;41.844;26.082;2023-01-10T01:42:34;100415.88;;;7.37;100.00
9335;BME280;4706;41.844;26.082;2023-01-10T01:47:58;100407.06;;;7.45;100.00
9335;BME280;4706;41.844;26.082;2023-01-10T01:50:50;100393.94;;;7.42;100.00
9335;BME280;4706;41.844;26.082;2023-01-10T01:53:31;100388.72;;;7.41;100.00
9335;BME280;4706;41.844;26.082;2023-01-10T01:56:02;100388.22;;;7.39;100.00
9335;BME280;4706;41.844;26.082;2023-01-10T01:58:36;100388.72;;;7.41;100.00
9335;BME280;4706;41.844;26.082;2023-01-10T02:01:03;100381.06;;;7.43;100.00
9335;BME280;4706;41.844;26.082;2023-01-10T02:03:29;100375.59;;;7.43;100.00
9335;BME280;4706;41.844;26.082;2023-01-10T02:05:56;100370.66;;;7.45;100.00
9335;BME280;4706;41.844;26.082;2023-01-10T02:08:22;100373.34;;;7.50;100.00
9335;BME280;4706;41.844;26.082;2023-01-10T02:11:01;100374.75;;;7.47;100.00
9335;BME280;4706;41.844;26.082;2023-01-10T02:13:29;100368.63;;;7.61;100.00
9335;BME280;4706;41.844;26.082;2023-01-10T02:15:55;100365.91;;;7.55;100.00
9335;BME280;4706;41.844;26.082;2023-01-10T02:18:21;100374.28;;;7.69;100.00
9335;BME280;4706;41.844;26.082;2023-01-10T02:45:35;100343.56;;;8.07;100.00
9335;BME280;4706;41.844;26.082;2023-01-10T02:48:03;100341.69;;;8.02;100.00
9335;BME280;4706;41.844;26.082;2023-01-10T02:53:13;100341.13;;;8.05;100.00
9335;BME280;4706;41.844;26.082;2023-01-10T03:07:42;100315.84;;;8.13;100.00
9335;BME280;4706;41.844;26.082;2023-01-10T03:10:17;100289.66;;;8.02;100.00
9335;BME280;4706;41.844;26.082;2023-01-10T03:12:50;100299.34;;;8.18;100.00
9335;BME280;4706;41.844;26.082;2023-01-10T03:15:20;100288.91;;;8.20;100.00
9335;BME280;4706;41.844;26.082;2023-01-10T03:17:50;100283.66;;;8.24;100.00
9335;BME280;4706;41.844;26.082;2023-01-10T03:20:19;100278.47;;;8.22;100.00
9335;BME280;4706;41.844;26.082;2023-01-10T03:22:47;100279.75;;;8.30;100.00
9335;BME280;4706;41.844;26.082;2023-01-10T03:25:15;100262.59;;;8.19;100.00
9335;BME280;4706;41.844;26.082;2023-01-10T03:32:56;100247.50;;;8.46;100.00
9335;BME280;4706;41.844;26.082;2023-01-10T03:35:33;100246.34;;;8.52;100.00
9335;BME280;4706;41.844;26.082;2023-01-10T03:38:09;100240.78;;;8.57;100.00
9335;BME280;4706;41.844;26.082;2023-01-10T03:41:35;100242.13;;;8.60;100.00
9335;BME280;4706;41.844;26.082;2023-01-10T03:43:46;100233.59;;;8.61;100.00
9335;BME280;4706;41.844;26.082;2023-01-10T03:46:41;100223.22;;;8.58;100.00
9335;BME280;4706;41.844;26.082;2023-01-10T03:49:11;100218.56;;;8.59;100.00
9335;BME280;4706;41.844;26.082;2023-01-10T03:51:38;100220.84;;;8.51;100.00
9335;BME280;4706;41.844;26.082;2023-01-10T03:54:04;100220.03;;;8.51;100.00
9335;BME280;4706;41.844;26.082;2023-01-10T03:56:30;100216.53;;;8.45;100.00
9335;BME280;4706;41.844;26.082;2023-01-10T03:58:55;100219.88;;;8.42;100.00
9335;BME280;4706;41.844;26.082;2023-01-10T04:01:21;100206.53;;;8.36;100.00
9335;BME280;4706;41.844;26.082;2023-01-10T04:03:47;100213.34;;;8.38;100.00
9335;BME280;4706;41.844;26.082;2023-01-10T04:06:12;100210.59;;;8.38;100.00
9335;BME280;4706;41.844;26.082;2023-01-10T04:08:38;100211.72;;;8.37;100.00
9335;BME280;4706;41.844;26.082;2023-01-10T04:11:03;100217.75;;;8.39;100.00
9335;BME280;4706;41.844;26.082;2023-01-10T04:13:30;100227.59;;;8.40;100.00
9335;BME280;4706;41.844;26.082;2023-01-10T04:15:58;100213.09;;;8.35;100.00
9335;BME280;4706;41.844;26.082;2023-01-10T04:18:24;100230.81;;;8.42;100.00
9335;BME280;4706;41.844;26.082;2023-01-10T04:20:49;100190.22;;;8.25;100.00
9335;BME280;4706;41.844;26.082;2023-01-10T04:23:15;100232.72;;;8.47;100.00
9335;BME280;4706;41.844;26.082;2023-01-10T04:25:40;100225.81;;;8.49;100.00
9335;BME280;4706;41.844;26.082;2023-01-10T04:28:06;100227.44;;;8.50;100.00
9335;BME280;4706;41.844;26.082;2023-01-10T04:30:32;100206.47;;;8.41;100.00
9335;BME280;4706;41.844;26.082;2023-01-10T04:32:57;100209.06;;;8.51;100.00
9335;BME280;4706;41.844;26.082;2023-01-10T04:35:23;100203.06;;;8.49;100.00
9335;BME280;4706;41.844;26.082;2023-01-10T04:37:48;100199.66;;;8.57;100.00
9335;BME280;4706;41.844;26.082;2023-01-10T04:40:14;100192.19;;;8.63;100.00
9335;BME280;4706;41.844;26.082;2023-01-10T04:42:43;100180.84;;;8.69;100.00
9335;BME280;4706;41.844;26.082;2023-01-10T04:45:09;100176.09;;;8.75;100.00
9335;BME280;4706;41.844;26.082;2023-01-10T04:47:37;100174.38;;;8.79;100.00
9335;BME280;4706;41.844;26.082;2023-01-10T04:50:03;100169.31;;;8.86;100.00
9335;BME280;4706;41.844;26.082;2023-01-10T04:52:29;100181.16;;;9.00;100.00
9335;BME280;4706;41.844;26.082;2023-01-10T04:54:54;100187.00;;;9.13;100.00
9335;BME280;4706;41.844;26.082;2023-01-10T04:57:20;100187.63;;;9.23;100.00
9335;BME280;4706;41.844;26.082;2023-01-10T04:59:45;100191.50;;;9.36;100.00
9335;BME280;4706;41.844;26.082;2023-01-10T05:02:11;100180.75;;;9.40;100.00
9335;BME280;4706;41.844;26.082;2023-01-10T05:04:36;100199.06;;;9.58;100.00
9335;BME280;4706;41.844;26.082;2023-01-10T05:07:02;100190.75;;;9.63;100.00
9335;BME280;4706;41.844;26.082;2023-01-10T05:09:27;100209.69;;;9.79;100.00
9335;BME280;4706;41.844;26.082;2023-01-10T05:11:53;100214.47;;;9.87;100.00
9335;BME280;4706;41.844;26.082;2023-01-10T05:14:19;100224.53;;;9.91;100.00
9335;BME280;4706;41.844;26.082;2023-01-10T05:16:44;100216.50;;;9.95;100.00
9335;BME280;4706;41.844;26.082;2023-01-10T05:19:10;100210.19;;;9.94;100.00
9335;BME280;4706;41.844;26.082;2023-01-10T05:21:36;100208.06;;;9.91;100.00
9335;BME280;4706;41.844;26.082;2023-01-10T05:24:01;100217.09;;;9.92;100.00
9335;BME280;4706;41.844;26.082;2023-01-10T05:26:27;100211.13;;;9.90;100.00
9335;BME280;4706;41.844;26.082;2023-01-10T05:28:52;100211.41;;;9.88;100.00
9335;BME280;4706;41.844;26.082;2023-01-10T05:31:18;100220.66;;;9.92;100.00
9335;BME280;4706;41.844;26.082;2023-01-10T05:33:49;100218.13;;;9.96;100.00
9335;BME280;4706;41.844;26.082;2023-01-10T05:36:15;100218.31;;;10.00;100.00
9335;BME280;4706;41.844;26.082;2023-01-10T05:38:41;100217.72;;;10.03;100.00
9335;BME280;4706;41.844;26.082;2023-01-10T05:41:07;100213.34;;;10.02;100.00
9335;BME280;4706;41.844;26.082;2023-01-10T05:43:33;100201.03;;;9.99;100.00
9335;BME280;4706;41.844;26.082;2023-01-10T05:45:59;100200.09;;;10.04;100.00
9335;BME280;4706;41.844;26.082;2023-01-10T05:48:24;100204.31;;;10.01;100.00
9335;BME280;4706;41.844;26.082;2023-01-10T05:50:50;100211.94;;;10.04;100.00
9335;BME280;4706;41.844;26.082;2023-01-10T05:53:16;100207.13;;;10.10;100.00
9335;BME280;4706;41.844;26.082;2023-01-10T05:55:42;100220.56;;;10.11;100.00
9335;BME280;4706;41.844;26.082;2023-01-10T05:58:08;100212.63;;;10.10;100.00
9335;BME280;4706;41.844;26.082;2023-01-10T06:00:36;100198.38;;;10.08;100.00
9335;BME280;4706;41.844;26.082;2023-01-10T06:03:02;100208.34;;;10.17;100.00
9335;BME280;4706;41.844;26.082;2023-01-10T06:05:27;100213.31;;;10.15;100.00
9335;BME280;4706;41.844;26.082;2023-01-10T06:07:53;100209.47;;;10.16;100.00
9335;BME280;4706;41.844;26.082;2023-01-10T06:10:18;100207.34;;;10.13;100.00
9335;BME280;4706;41.844;26.082;2023-01-10T06:12:44;100202.97;;;10.12;100.00
9335;BME280;4706;41.844;26.082;2023-01-10T06:15:10;100197.28;;;10.09;100.00
9335;BME280;4706;41.844;26.082;2023-01-10T06:17:35;100194.72;;;10.12;100.00
9335;BME280;4706;41.844;26.082;2023-01-10T06:20:01;100197.97;;;10.14;100.00
9335;BME280;4706;41.844;26.082;2023-01-10T06:22:27;100196.34;;;10.13;100.00
9335;BME280;4706;41.844;26.082;2023-01-10T06:24:53;100179.13;;;10.08;100.00
9335;BME280;4706;41.844;26.082;2023-01-10T06:27:21;100170.91;;;10.08;100.00
9335;BME280;4706;41.844;26.082;2023-01-10T06:29:46;100187.97;;;10.18;100.00
9335;BME280;4706;41.844;26.082;2023-01-10T06:32:12;100202.03;;;10.17;100.00
9335;BME280;4706;41.844;26.082;2023-01-10T06:34:37;100194.50;;;10.22;100.00
9335;BME280;4706;41.844;26.082;2023-01-10T06:37:03;100183.50;;;10.22;100.00
9335;BME280;4706;41.844;26.082;2023-01-10T06:39:28;100188.19;;;10.22;100.00
9335;BME280;4706;41.844;26.082;2023-01-10T06:41:54;100178.44;;;10.16;100.00
9335;BME280;4706;41.844;26.082;2023-01-10T06:44:19;100173.56;;;10.13;100.00
9335;BME280;4706;41.844;26.082;2023-01-10T06:46:45;100177.72;;;10.10;100.00
9335;BME280;4706;41.844;26.082;2023-01-10T06:49:11;100167.47;;;10.02;100.00
9335;BME280;4706;41.844;26.082;2023-01-10T06:51:37;100179.78;;;10.05;100.00
9335;BME280;4706;41.844;26.082;2023-01-10T06:54:02;100175.28;;;9.95;100.00
9335;BME280;4706;41.844;26.082;2023-01-10T06:56:28;100161.06;;;9.93;100.00
9335;BME280;4706;41.844;26.082;2023-01-10T06:58:53;100163.19;;;9.96;100.00
9335;BME280;4706;41.844;26.082;2023-01-10T07:01:20;100165.44;;;9.94;100.00
9335;BME280;4706;41.844;26.082;2023-01-10T07:03:46;100151.09;;;9.83;100.00
9335;BME280;4706;41.844;26.082;2023-01-10T07:06:12;100187.69;;;9.92;100.00
9335;BME280;4706;41.844;26.082;2023-01-10T07:08:39;100180.38;;;9.88;100.00
9335;BME280;4706;41.844;26.082;2023-01-10T07:11:06;100185.38;;;9.86;100.00
9335;BME280;4706;41.844;26.082;2023-01-10T07:13:32;100167.56;;;9.97;100.00
9335;BME280;4706;41.844;26.082;2023-01-10T07:16:05;100176.03;;;10.01;100.00
9335;BME280;4706;41.844;26.082;2023-01-10T07:18:33;100165.31;;;9.99;100.00
9335;BME280;4706;41.844;26.082;2023-01-10T07:20:59;100174.69;;;9.98;100.00
9335;BME280;4706;41.844;26.082;2023-01-10T07:23:25;100121.00;;;9.78;100.00
9335;BME280;4706;41.844;26.082;2023-01-10T07:25:50;100146.91;;;10.00;100.00
9335;BME280;4706;41.844;26.082;2023-01-10T07:28:16;100143.13;;;9.95;100.00
9335;BME280;4706;41.844;26.082;2023-01-10T07:30:42;100138.34;;;10.01;100.00
9335;BME280;4706;41.844;26.082;2023-01-10T07:33:07;100133.97;;;10.00;100.00
9335;BME280;4706;41.844;26.082;2023-01-10T07:35:33;100131.47;;;9.90;100.00
9335;BME280;4706;41.844;26.082;2023-01-10T07:37:59;100139.47;;;10.00;100.00
9335;BME280;4706;41.844;26.082;2023-01-10T07:40:26;100148.84;;;9.99;100.00
9335;BME280;4706;41.844;26.082;2023-01-10T07:42:59;100142.31;;;9.95;100.00
9335;BME280;4706;41.844;26.082;2023-01-10T07:45:25;100129.81;;;9.89;100.00
9335;BME280;4706;41.844;26.082;2023-01-10T07:47:58;100129.13;;;9.83;100.00
9335;BME280;4706;41.844;26.082;2023-01-10T07:50:25;100111.81;;;9.83;100.00
9335;BME280;4706;41.844;26.082;2023-01-10T07:52:51;100072.69;;;9.63;100.00
9335;BME280;4706;41.844;26.082;2023-01-10T07:55:16;100114.38;;;9.93;100.00
9335;BME280;4706;41.844;26.082;2023-01-10T07:57:42;100106.94;;;9.93;100.00
9335;BME280;4706;41.844;26.082;2023-01-10T08:00:09;100097.63;;;10.03;100.00
9335;BME280;4706;41.844;26.082;2023-01-10T08:02:34;100104.34;;;10.11;100.00
9335;BME280;4706;41.844;26.082;2023-01-10T08:05:00;100099.97;;;10.10;100.00
9335;BME280;4706;41.844;26.082;2023-01-10T08:07:30;100087.44;;;10.17;100.00
9335;BME280;4706;41.844;26.082;2023-01-10T08:09:56;100093.13;;;10.21;100.00
9335;BME280;4706;41.844;26.082;2023-01-10T08:12:22;100091.78;;;10.18;100.00
9335;BME280;4706;41.844;26.082;2023-01-10T08:14:50;100078.06;;;10.18;100.00
9335;BME280;4706;41.844;26.082;2023-01-10T08:17:15;100081.63;;;10.19;100.00
9335;BME280;4706;41.844;26.082;2023-01-10T08:19:41;100076.25;;;10.28;100.00
9335;BME280;4706;41.844;26.082;2023-01-10T08:22:06;100070.13;;;10.31;100.00
9335;BME280;4706;41.844;26.082;2023-01-10T08:24:33;100065.81;;;10.38;100.00
9335;BME280;4706;41.844;26.082;2023-01-10T08:26:59;100055.19;;;10.45;100.00
9335;BME280;4706;41.844;26.082;2023-01-10T08:29:24;100059.13;;;10.53;100.00
9335;BME280;4706;41.844;26.082;2023-01-10T08:31:50;100070.28;;;10.57;100.00
9335;BME280;4706;41.844;26.082;2023-01-10T08:34:15;100068.88;;;10.59;100.00
9335;BME280;4706;41.844;26.082;2023-01-10T08:36:41;100065.50;;;10.62;100.00
9335;BME280;4706;41.844;26.082;2023-01-10T08:39:06;100061.94;;;10.62;100.00
9335;BME280;4706;41.844;26.082;2023-01-10T08:41:32;100067.44;;;10.62;100.00
9335;BME280;4706;41.844;26.082;2023-01-10T08:43:58;100079.28;;;10.71;100.00
9335;BME280;4706;41.844;26.082;2023-01-10T08:46:23;100065.88;;;10.69;100.00
9335;BME280;4706;41.844;26.082;2023-01-10T08:48:49;100057.88;;;10.59;100.00
9335;BME280;4706;41.844;26.082;2023-01-10T08:51:16;100048.22;;;10.70;100.00
9335;BME280;4706;41.844;26.082;2023-01-10T08:53:42;100046.81;;;10.73;100.00
9335;BME280;4706;41.844;26.082;2023-01-10T08:56:08;100054.63;;;10.80;100.00
9335;BME280;4706;41.844;26.082;2023-01-10T08:58:34;100058.97;;;10.81;100.00
9335;BME280;4706;41.844;26.082;2023-01-10T09:01:03;100054.63;;;10.80;100.00
9335;BME280;4706;41.844;26.082;2023-01-10T09:03:29;100064.63;;;10.76;100.00
9335;BME280;4706;41.844;26.082;2023-01-10T09:05:55;100049.91;;;10.80;100.00
9335;BME280;4706;41.844;26.082;2023-01-10T09:08:22;100050.72;;;10.81;99.77
9335;BME280;4706;41.844;26.082;2023-01-10T09:10:47;100046.28;;;10.71;100.00
9335;BME280;4706;41.844;26.082;2023-01-10T09:13:13;100025.59;;;10.74;100.00
9335;BME280;4706;41.844;26.082;2023-01-10T09:15:41;100021.09;;;10.78;100.00
9335;BME280;4706;41.844;26.082;2023-01-10T09:18:09;100015.78;;;10.81;100.00
9335;BME280;4706;41.844;26.082;2023-01-10T09:20:37;100013.81;;;10.82;100.00
9335;BME280;4706;41.844;26.082;2023-01-10T09:23:11;99999.94;;;10.87;100.00
9335;BME280;4706;41.844;26.082;2023-01-10T09:25:42;99994.31;;;10.92;100.00
9335;BME280;4706;41.844;26.082;2023-01-10T09:28:08;99989.97;;;11.00;99.77
9335;BME280;4706;41.844;26.082;2023-01-10T09:30:34;99961.13;;;10.97;99.92
9335;BME280;4706;41.844;26.082;2023-01-10T09:33:00;99986.22;;;10.96;100.00
9335;BME280;4706;41.844;26.082;2023-01-10T09:35:27;99989.78;;;10.96;100.00
9335;BME280;4706;41.844;26.082;2023-01-10T09:37:54;99975.53;;;10.94;100.00
9335;BME280;4706;41.844;26.082;2023-01-10T09:48:16;99957.69;;;10.83;100.00
9335;BME280;4706;41.844;26.082;2023-01-10T09:50:57;99954.81;;;10.88;100.00
9335;BME280;4706;41.844;26.082;2023-01-10T09:53:30;99950.41;;;10.87;100.00
9335;BME280;4706;41.844;26.082;2023-01-10T09:55:59;99935.03;;;10.86;100.00
9335;BME280;4706;41.844;26.082;2023-01-10T09:58:27;99932.63;;;10.93;100.00
9335;BME280;4706;41.844;26.082;2023-01-10T10:01:01;99935.56;;;10.97;100.00
9335;BME280;4706;41.844;26.082;2023-01-10T10:06:02;99915.16;;;10.98;100.00
9335;BME280;4706;41.844;26.082;2023-01-10T10:08:28;99914.41;;;11.06;100.00
9335;BME280;4706;41.844;26.082;2023-01-10T10:11:03;99898.38;;;11.08;100.00
9335;BME280;4706;41.844;26.082;2023-01-10T10:14:39;99909.72;;;11.15;100.00
9335;BME280;4706;41.844;26.082;2023-01-10T10:27:22;99880.25;;;11.15;100.00
9335;BME280;4706;41.844;26.082;2023-01-10T10:35:44;99840.75;;;11.20;100.00
9335;BME280;4706;41.844;26.082;2023-01-10T10:38:21;99849.00;;;11.20;100.00
9335;BME280;4706;41.844;26.082;2023-01-10T10:40:51;99829.41;;;11.13;100.00
9335;BME280;4706;41.844;26.082;2023-01-10T10:43:21;99831.69;;;11.19;100.00
9335;BME280;4706;41.844;26.082;2023-01-10T10:45:54;99824.56;;;11.18;100.00
9335;BME280;4706;41.844;26.082;2023-01-10T10:51:03;99802.06;;;11.25;100.00
9335;BME280;4706;41.844;26.082;2023-01-10T10:53:32;99791.19;;;11.20;100.00
9335;BME280;4706;41.844;26.082;2023-01-10T10:55:59;99806.44;;;11.26;100.00
9335;BME280;4706;41.844;26.082;2023-01-10T10:58:26;99790.25;;;11.25;100.00
9335;BME280;4706;41.844;26.082;2023-01-10T11:00:55;99787.47;;;11.16;100.00
9335;BME280;4706;41.844;26.082;2023-01-10T11:06:13;99774.84;;;11.24;100.00
9335;BME280;4706;41.844;26.082;2023-01-10T11:08:42;99753.81;;;11.19;100.00
9335;BME280;4706;41.844;26.082;2023-01-10T11:11:22;99768.22;;;11.16;100.00
9335;BME280;4706;41.844;26.082;2023-01-10T11:13:58;99758.97;;;11.21;100.00
9335;BME280;4706;41.844;26.082;2023-01-10T11:16:36;99755.09;;;11.22;100.00
9335;BME280;4706;41.844;26.082;2023-01-10T11:19:22;99731.78;;;11.19;100.00
9335;BME280;4706;41.844;26.082;2023-01-10T11:22:01;99735.50;;;11.23;100.00
9335;BME280;4706;41.844;26.082;2023-01-10T11:25:12;99727.25;;;11.23;100.00
9335;BME280;4706;41.844;26.082;2023-01-10T11:27:44;99716.41;;;11.18;100.00
9335;BME280;4706;41.844;26.082;2023-01-10T11:30:17;99706.03;;;11.24;100.00
9335;BME280;4706;41.844;26.082;2023-01-10T11:32:51;99697.13;;;11.27;100.00
9335;BME280;4706;41.844;26.082;2023-01-10T11:35:30;99684.00;;;11.32;100.00
9335;BME280;4706;41.844;26.082;2023-01-10T11:38:08;99696.31;;;11.35;100.00
9335;BME280;4706;41.844;26.082;2023-01-10T11:41:04;99685.94;;;11.40;100.00
9335;BME280;4706;41.844;26.082;2023-01-10T11:43:37;99680.59;;;11.44;100.00
9335;BME280;4706;41.844;26.082;2023-01-10T11:48:49;99684.78;;;11.41;100.00
9335;BME280;4706;41.844;26.082;2023-01-10T11:51:21;99689.97;;;11.43;100.00
9335;BME280;4706;41.844;26.082;2023-01-10T11:53:57;99696.31;;;11.43;100.00
9335;BME280;4706;41.844;26.082;2023-01-10T11:56:27;99683.34;;;11.44;100.00
9335;BME280;4706;41.844;26.082;2023-01-10T11:58:56;99677.50;;;11.46;100.00
9335;BME280;4706;41.844;26.082;2023-01-10T12:04:43;99697.56;;;11.46;100.00
9335;BME280;4706;41.844;26.082;2023-01-10T12:07:11;99703.06;;;11.46;100.00
9335;BME280;4706;41.844;26.082;2023-01-10T12:09:42;99718.59;;;11.51;100.00
9335;BME280;4706;41.844;26.082;2023-01-10T12:14:46;99722.19;;;11.42;100.00
9335;BME280;4706;41.844;26.082;2023-01-10T12:17:20;99712.00;;;11.34;100.00
9335;BME280;4706;41.844;26.082;2023-01-10T12:19:47;99717.69;;;11.38;100.00
9335;BME280;4706;41.844;26.082;2023-01-10T12:22:14;99724.81;;;11.30;100.00
9335;BME280;4706;41.844;26.082;2023-01-10T12:24:43;99750.22;;;11.27;100.00
9335;BME280;4706;41.844;26.082;2023-01-10T12:27:14;99775.00;;;11.27;100.00
9335;BME280;4706;41.844;26.082;2023-01-10T12:29:52;99793.31;;;11.23;100.00
9335;BME280;4706;41.844;26.082;2023-01-10T12:32:26;99805.28;;;11.18;100.00
9335;BME280;4706;41.844;26.082;2023-01-10T12:35:01;99809.19;;;11.17;100.00
9335;BME280;4706;41.844;26.082;2023-01-10T12:38:05;99815.00;;;11.16;100.00
9335;BME280;4706;41.844;26.082;2023-01-10T12:40:43;99810.63;;;11.15;100.00
9335;BME280;4706;41.844;26.082;2023-01-10T12:46:22;99814.19;;;11.24;100.00
9335;BME280;4706;41.844;26.082;2023-01-10T12:48:59;99803.34;;;11.28;100.00
9335;BME280;4706;41.844;26.082;2023-01-10T12:51:27;99796.06;;;11.32;100.00
9335;BME280;4706;41.844;26.082;2023-01-10T12:54:13;99788.78;;;11.36;100.00
9335;BME280;4706;41.844;26.082;2023-01-10T12:56:40;99790.41;;;11.37;100.00
9335;BME280;4706;41.844;26.082;2023-01-10T13:01:50;99779.84;;;11.39;100.00
9335;BME280;4706;41.844;26.082;2023-01-10T13:04:20;99777.78;;;11.36;100.00
9335;BME280;4706;41.844;26.082;2023-01-10T13:06:47;99776.94;;;11.35;100.00
9335;BME280;4706;41.844;26.082;2023-01-10T13:09:40;99779.53;;;11.32;100.00
9335;BME280;4706;41.844;26.082;2023-01-10T13:12:20;99791.38;;;11.32;100.00
9335;BME280;4706;41.844;26.082;2023-01-10T13:15:13;99793.63;;;11.30;100.00
9335;BME280;4706;41.844;26.082;2023-01-10T13:17:44;99796.22;;;11.27;100.00
9335;BME280;4706;41.844;26.082;2023-01-10T13:22:45;99797.03;;;11.27;100.00
9335;BME280;4706;41.844;26.082;2023-01-10T13:27:44;99805.94;;;11.24;100.00
9335;BME280;4706;41.844;26.082;2023-01-10T13:30:35;99809.03;;;11.23;100.00
9335;BME280;4706;41.844;26.082;2023-01-10T13:33:51;99802.53;;;11.18;100.00
9335;BME280;4706;41.844;26.082;2023-01-10T13:36:11;99808.03;;;11.18;100.00
9335;BME280;4706;41.844;26.082;2023-01-10T13:38:58;99787.47;;;11.16;100.00
9335;BME280;4706;41.844;26.082;2023-01-10T13:55:25;99794.28;;;11.10;100.00
9335;BME280;4706;41.844;26.082;2023-01-10T13:58:03;99786.03;;;11.10;100.00
9335;BME280;4706;41.844;26.082;2023-01-10T14:06:00;99769.19;;;11.11;100.00
9335;BME280;4706;41.844;26.082;2023-01-10T14:08:29;99756.88;;;11.09;100.00
9335;BME280;4706;41.844;26.082;2023-01-10T14:11:09;99740.22;;;11.14;100.00
9335;BME280;4706;41.844;26.082;2023-01-10T14:13:36;99722.41;;;11.11;100.00
9335;BME280;4706;41.844;26.082;2023-01-10T14:16:02;99729.38;;;11.17;100.00
9335;BME280;4706;41.844;26.082;2023-01-10T14:18:32;99720.31;;;11.17;100.00
9335;BME280;4706;41.844;26.082;2023-01-10T14:21:03;99723.06;;;11.17;100.00
9335;BME280;4706;41.844;26.082;2023-01-10T14:23:40;99695.38;;;11.05;100.00
9335;BME280;4706;41.844;26.082;2023-01-10T14:26:28;99711.72;;;11.01;100.00
9335;BME280;4706;41.844;26.082;2023-01-10T14:28:55;99714.16;;;11.03;100.00
9335;BME280;4706;41.844;26.082;2023-01-10T14:31:22;99707.19;;;11.05;100.00
9335;BME280;4706;41.844;26.082;2023-01-10T14:33:50;99723.88;;;11.00;100.00
9335;BME280;4706;41.844;26.082;2023-01-10T14:36:50;99705.25;;;10.97;100.00
9335;BME280;4706;41.844;26.082;2023-01-10T14:39:18;99710.94;;;10.92;100.00
9335;BME280;4706;41.844;26.082;2023-01-10T14:41:52;99705.56;;;10.87;100.00
9335;BME280;4706;41.844;26.082;2023-01-10T14:44:26;99709.78;;;10.93;100.00
9335;BME280;4706;41.844;26.082;2023-01-10T14:46:55;99699.28;;;10.95;100.00
9335;BME280;4706;41.844;26.082;2023-01-10T14:51:46;99722.41;;;11.03;100.00
9335;BME280;4706;41.844;26.082;2023-01-10T14:54:17;99730.50;;;10.99;100.00
9335;BME280;4706;41.844;26.082;2023-01-10T14:56:51;99755.44;;;11.03;100.00
9335;BME280;4706;41.844;26.082;2023-01-10T14:59:17;99773.56;;;11.04;100.00
9335;BME280;4706;41.844;26.082;2023-01-10T15:01:48;99788.63;;;11.06;100.00
9335;BME280;4706;41.844;26.082;2023-01-10T15:04:16;99787.50;;;11.07;100.00
9335;BME280;4706;41.844;26.082;2023-01-10T15:09:17;99773.41;;;11.00;100.00
9335;BME280;4706;41.844;26.082;2023-01-10T15:11:43;99766.59;;;10.98;100.00
9335;BME280;4706;41.844;26.082;2023-01-10T15:14:12;99776.31;;;11.04;100.00